<?xml version="1.0" encoding="UTF-8" standalone="no" ?>
<gpx xmlns="http://www.topografix.com/GPX/1/1" xmlns:xsi="http://www.w3.org/2001/XMLSchema-instance" xsi:schemaLocation="http://www.topografix.com/GPX/1/1 http://www.topografix.com/GPX/1/1/gpx.xsd" version="1.1" creator="VisuGPX - https://www.visugpx.com">
  <metadata>
    <name>Saint Jean Rando 2</name>
    <desc><![CDATA[Randonnée Newcastel Dimanche Matin]]></desc>
  </metadata>
  <trk>
    <name><![CDATA[4 juin 2017 9:39:24 AM]]></name>
    <trkseg>
      <trkpt lat="44.42845" lon="6.28966">
        <ele>1324</ele>
        <time>2017-06-04T07:39:20.000Z</time>
      </trkpt>
      <trkpt lat="44.42856" lon="6.28965">
        <ele>1325</ele>
        <time>2017-06-04T07:39:28.000Z</time>
      </trkpt>
      <trkpt lat="44.42865" lon="6.28967">
        <ele>1324</ele>
        <time>2017-06-04T07:39:37.000Z</time>
      </trkpt>
      <trkpt lat="44.42865" lon="6.2898">
        <ele>1325</ele>
        <time>2017-06-04T07:39:48.000Z</time>
      </trkpt>
      <trkpt lat="44.42868" lon="6.28992">
        <ele>1328</ele>
        <time>2017-06-04T07:40:00.000Z</time>
      </trkpt>
      <trkpt lat="44.42868" lon="6.29006">
        <ele>1332</ele>
        <time>2017-06-04T07:40:10.000Z</time>
      </trkpt>
      <trkpt lat="44.4287" lon="6.29019">
        <ele>1333</ele>
        <time>2017-06-04T07:40:21.000Z</time>
      </trkpt>
      <trkpt lat="44.42877" lon="6.29027">
        <ele>1333</ele>
        <time>2017-06-04T07:40:29.000Z</time>
      </trkpt>
      <trkpt lat="44.42886" lon="6.29032">
        <ele>1332</ele>
        <time>2017-06-04T07:40:39.000Z</time>
      </trkpt>
      <trkpt lat="44.42894" lon="6.29034">
        <ele>1335</ele>
        <time>2017-06-04T07:40:50.000Z</time>
      </trkpt>
      <trkpt lat="44.42903" lon="6.29031">
        <ele>1338</ele>
        <time>2017-06-04T07:41:06.000Z</time>
      </trkpt>
      <trkpt lat="44.42912" lon="6.29034">
        <ele>1339</ele>
        <time>2017-06-04T07:41:19.000Z</time>
      </trkpt>
      <trkpt lat="44.42922" lon="6.2903">
        <ele>1340</ele>
        <time>2017-06-04T07:41:29.000Z</time>
      </trkpt>
      <trkpt lat="44.42934" lon="6.29028">
        <ele>1341</ele>
        <time>2017-06-04T07:41:42.000Z</time>
      </trkpt>
      <trkpt lat="44.42946" lon="6.29027">
        <ele>1341</ele>
        <time>2017-06-04T07:41:51.000Z</time>
      </trkpt>
      <trkpt lat="44.42954" lon="6.29024">
        <ele>1339</ele>
        <time>2017-06-04T07:42:00.000Z</time>
      </trkpt>
      <trkpt lat="44.42965" lon="6.29024">
        <ele>1338</ele>
        <time>2017-06-04T07:42:09.000Z</time>
      </trkpt>
      <trkpt lat="44.42977" lon="6.29023">
        <ele>1338</ele>
        <time>2017-06-04T07:42:18.000Z</time>
      </trkpt>
      <trkpt lat="44.42986" lon="6.29024">
        <ele>1336</ele>
        <time>2017-06-04T07:42:24.000Z</time>
      </trkpt>
      <trkpt lat="44.42995" lon="6.29025">
        <ele>1332</ele>
        <time>2017-06-04T07:42:38.000Z</time>
      </trkpt>
      <trkpt lat="44.43004" lon="6.29027">
        <ele>1336</ele>
        <time>2017-06-04T07:42:52.000Z</time>
      </trkpt>
      <trkpt lat="44.43014" lon="6.2903">
        <ele>1338</ele>
        <time>2017-06-04T07:43:04.000Z</time>
      </trkpt>
      <trkpt lat="44.43021" lon="6.29039">
        <ele>1342</ele>
        <time>2017-06-04T07:43:15.000Z</time>
      </trkpt>
      <trkpt lat="44.43031" lon="6.29043">
        <ele>1347</ele>
        <time>2017-06-04T07:43:28.000Z</time>
      </trkpt>
      <trkpt lat="44.4304" lon="6.29049">
        <ele>1346</ele>
        <time>2017-06-04T07:43:37.000Z</time>
      </trkpt>
      <trkpt lat="44.43049" lon="6.29053">
        <ele>1344</ele>
        <time>2017-06-04T07:43:53.000Z</time>
      </trkpt>
      <trkpt lat="44.43058" lon="6.29056">
        <ele>1348</ele>
        <time>2017-06-04T07:44:09.000Z</time>
      </trkpt>
      <trkpt lat="44.43068" lon="6.29056">
        <ele>1348</ele>
        <time>2017-06-04T07:44:20.000Z</time>
      </trkpt>
      <trkpt lat="44.43078" lon="6.2906">
        <ele>1352</ele>
        <time>2017-06-04T07:44:40.000Z</time>
      </trkpt>
      <trkpt lat="44.43087" lon="6.29062">
        <ele>1355</ele>
        <time>2017-06-04T07:44:55.000Z</time>
      </trkpt>
      <trkpt lat="44.43095" lon="6.29067">
        <ele>1352</ele>
        <time>2017-06-04T07:45:05.000Z</time>
      </trkpt>
      <trkpt lat="44.43107" lon="6.2907">
        <ele>1367</ele>
        <time>2017-06-04T07:45:12.000Z</time>
      </trkpt>
      <trkpt lat="44.43116" lon="6.2907">
        <ele>1355</ele>
        <time>2017-06-04T07:45:32.000Z</time>
      </trkpt>
      <trkpt lat="44.43126" lon="6.2907">
        <ele>1359</ele>
        <time>2017-06-04T07:45:45.000Z</time>
      </trkpt>
      <trkpt lat="44.43136" lon="6.2907">
        <ele>1360</ele>
        <time>2017-06-04T07:45:57.000Z</time>
      </trkpt>
      <trkpt lat="44.43144" lon="6.29072">
        <ele>1363</ele>
        <time>2017-06-04T07:46:14.000Z</time>
      </trkpt>
      <trkpt lat="44.43153" lon="6.29071">
        <ele>1366</ele>
        <time>2017-06-04T07:46:25.000Z</time>
      </trkpt>
      <trkpt lat="44.43163" lon="6.29076">
        <ele>1373</ele>
        <time>2017-06-04T07:46:38.000Z</time>
      </trkpt>
      <trkpt lat="44.43169" lon="6.29085">
        <ele>1372</ele>
        <time>2017-06-04T07:46:52.000Z</time>
      </trkpt>
      <trkpt lat="44.43177" lon="6.29093">
        <ele>1377</ele>
        <time>2017-06-04T07:47:07.000Z</time>
      </trkpt>
      <trkpt lat="44.43185" lon="6.291">
        <ele>1379</ele>
        <time>2017-06-04T07:47:21.000Z</time>
      </trkpt>
      <trkpt lat="44.43194" lon="6.29106">
        <ele>1380</ele>
        <time>2017-06-04T07:47:34.000Z</time>
      </trkpt>
      <trkpt lat="44.43203" lon="6.29109">
        <ele>1380</ele>
        <time>2017-06-04T07:47:53.000Z</time>
      </trkpt>
      <trkpt lat="44.43214" lon="6.29112">
        <ele>1381</ele>
        <time>2017-06-04T07:48:03.000Z</time>
      </trkpt>
      <trkpt lat="44.43225" lon="6.2911">
        <ele>1376</ele>
        <time>2017-06-04T07:48:12.000Z</time>
      </trkpt>
      <trkpt lat="44.43235" lon="6.29109">
        <ele>1376</ele>
        <time>2017-06-04T07:48:22.000Z</time>
      </trkpt>
      <trkpt lat="44.43245" lon="6.29102">
        <ele>1375</ele>
        <time>2017-06-04T07:48:34.000Z</time>
      </trkpt>
      <trkpt lat="44.43256" lon="6.29098">
        <ele>1376</ele>
        <time>2017-06-04T07:48:44.000Z</time>
      </trkpt>
      <trkpt lat="44.43266" lon="6.29096">
        <ele>1380</ele>
        <time>2017-06-04T07:48:57.000Z</time>
      </trkpt>
      <trkpt lat="44.43274" lon="6.29092">
        <ele>1382</ele>
        <time>2017-06-04T07:49:08.000Z</time>
      </trkpt>
      <trkpt lat="44.43285" lon="6.29091">
        <ele>1385</ele>
        <time>2017-06-04T07:49:20.000Z</time>
      </trkpt>
      <trkpt lat="44.43294" lon="6.29093">
        <ele>1394</ele>
        <time>2017-06-04T07:49:43.000Z</time>
      </trkpt>
      <trkpt lat="44.43305" lon="6.2909">
        <ele>1399</ele>
        <time>2017-06-04T07:52:00.000Z</time>
      </trkpt>
      <trkpt lat="44.43316" lon="6.2909">
        <ele>1401</ele>
        <time>2017-06-04T07:52:13.000Z</time>
      </trkpt>
      <trkpt lat="44.43327" lon="6.29084">
        <ele>1398</ele>
        <time>2017-06-04T07:52:19.000Z</time>
      </trkpt>
      <trkpt lat="44.43337" lon="6.29083">
        <ele>1394</ele>
        <time>2017-06-04T07:52:27.000Z</time>
      </trkpt>
      <trkpt lat="44.43346" lon="6.29083">
        <ele>1394</ele>
        <time>2017-06-04T07:52:37.000Z</time>
      </trkpt>
      <trkpt lat="44.43356" lon="6.29079">
        <ele>1393</ele>
        <time>2017-06-04T07:52:47.000Z</time>
      </trkpt>
      <trkpt lat="44.43364" lon="6.29074">
        <ele>1390</ele>
        <time>2017-06-04T07:52:59.000Z</time>
      </trkpt>
      <trkpt lat="44.43373" lon="6.29069">
        <ele>1393</ele>
        <time>2017-06-04T07:53:09.000Z</time>
      </trkpt>
      <trkpt lat="44.43383" lon="6.29067">
        <ele>1393</ele>
        <time>2017-06-04T07:53:19.000Z</time>
      </trkpt>
      <trkpt lat="44.43392" lon="6.29063">
        <ele>1396</ele>
        <time>2017-06-04T07:53:28.000Z</time>
      </trkpt>
      <trkpt lat="44.43401" lon="6.29063">
        <ele>1398</ele>
        <time>2017-06-04T07:53:36.000Z</time>
      </trkpt>
      <trkpt lat="44.43412" lon="6.29063">
        <ele>1399</ele>
        <time>2017-06-04T07:53:49.000Z</time>
      </trkpt>
      <trkpt lat="44.43424" lon="6.29062">
        <ele>1399</ele>
        <time>2017-06-04T07:54:00.000Z</time>
      </trkpt>
      <trkpt lat="44.43434" lon="6.29068">
        <ele>1404</ele>
        <time>2017-06-04T07:54:14.000Z</time>
      </trkpt>
      <trkpt lat="44.43443" lon="6.29073">
        <ele>1406</ele>
        <time>2017-06-04T07:54:25.000Z</time>
      </trkpt>
      <trkpt lat="44.43452" lon="6.29079">
        <ele>1402</ele>
        <time>2017-06-04T07:54:37.000Z</time>
      </trkpt>
      <trkpt lat="44.43462" lon="6.29081">
        <ele>1400</ele>
        <time>2017-06-04T07:54:44.000Z</time>
      </trkpt>
      <trkpt lat="44.43471" lon="6.29083">
        <ele>1399</ele>
        <time>2017-06-04T07:54:52.000Z</time>
      </trkpt>
      <trkpt lat="44.4348" lon="6.29087">
        <ele>1401</ele>
        <time>2017-06-04T07:55:00.000Z</time>
      </trkpt>
      <trkpt lat="44.4349" lon="6.29089">
        <ele>1403</ele>
        <time>2017-06-04T07:55:08.000Z</time>
      </trkpt>
      <trkpt lat="44.43499" lon="6.2909">
        <ele>1406</ele>
        <time>2017-06-04T07:55:20.000Z</time>
      </trkpt>
      <trkpt lat="44.43508" lon="6.2909">
        <ele>1405</ele>
        <time>2017-06-04T07:55:32.000Z</time>
      </trkpt>
      <trkpt lat="44.4352" lon="6.29088">
        <ele>1407</ele>
        <time>2017-06-04T07:55:50.000Z</time>
      </trkpt>
      <trkpt lat="44.43528" lon="6.29082">
        <ele>1404</ele>
        <time>2017-06-04T07:55:57.000Z</time>
      </trkpt>
      <trkpt lat="44.43536" lon="6.29074">
        <ele>1407</ele>
        <time>2017-06-04T07:56:07.000Z</time>
      </trkpt>
      <trkpt lat="44.43544" lon="6.29065">
        <ele>1411</ele>
        <time>2017-06-04T07:56:19.000Z</time>
      </trkpt>
      <trkpt lat="44.43552" lon="6.29054">
        <ele>1414</ele>
        <time>2017-06-04T07:56:35.000Z</time>
      </trkpt>
      <trkpt lat="44.43559" lon="6.29044">
        <ele>1413</ele>
        <time>2017-06-04T07:56:41.000Z</time>
      </trkpt>
      <trkpt lat="44.43566" lon="6.29033">
        <ele>1420</ele>
        <time>2017-06-04T07:56:52.000Z</time>
      </trkpt>
      <trkpt lat="44.43572" lon="6.29024">
        <ele>1424</ele>
        <time>2017-06-04T07:57:01.000Z</time>
      </trkpt>
      <trkpt lat="44.43577" lon="6.29012">
        <ele>1420</ele>
        <time>2017-06-04T07:57:14.000Z</time>
      </trkpt>
      <trkpt lat="44.43585" lon="6.29004">
        <ele>1424</ele>
        <time>2017-06-04T07:57:22.000Z</time>
      </trkpt>
      <trkpt lat="44.43596" lon="6.28997">
        <ele>1422</ele>
        <time>2017-06-04T07:57:30.000Z</time>
      </trkpt>
      <trkpt lat="44.43604" lon="6.2899">
        <ele>1423</ele>
        <time>2017-06-04T07:57:45.000Z</time>
      </trkpt>
      <trkpt lat="44.43613" lon="6.28979">
        <ele>1429</ele>
        <time>2017-06-04T07:57:55.000Z</time>
      </trkpt>
      <trkpt lat="44.43621" lon="6.2897">
        <ele>1433</ele>
        <time>2017-06-04T07:58:06.000Z</time>
      </trkpt>
      <trkpt lat="44.43631" lon="6.28967">
        <ele>1435</ele>
        <time>2017-06-04T07:58:16.000Z</time>
      </trkpt>
      <trkpt lat="44.4364" lon="6.28967">
        <ele>1436</ele>
        <time>2017-06-04T07:58:27.000Z</time>
      </trkpt>
      <trkpt lat="44.43649" lon="6.28965">
        <ele>1426</ele>
        <time>2017-06-04T07:58:41.000Z</time>
      </trkpt>
      <trkpt lat="44.43658" lon="6.28959">
        <ele>1424</ele>
        <time>2017-06-04T07:58:57.000Z</time>
      </trkpt>
      <trkpt lat="44.43668" lon="6.28953">
        <ele>1424</ele>
        <time>2017-06-04T07:59:07.000Z</time>
      </trkpt>
      <trkpt lat="44.43678" lon="6.28951">
        <ele>1424</ele>
        <time>2017-06-04T07:59:14.000Z</time>
      </trkpt>
      <trkpt lat="44.43688" lon="6.28948">
        <ele>1433</ele>
        <time>2017-06-04T08:01:58.000Z</time>
      </trkpt>
      <trkpt lat="44.43697" lon="6.28951">
        <ele>1437</ele>
        <time>2017-06-04T08:03:37.000Z</time>
      </trkpt>
      <trkpt lat="44.43708" lon="6.28956">
        <ele>1435</ele>
        <time>2017-06-04T08:03:46.000Z</time>
      </trkpt>
      <trkpt lat="44.43717" lon="6.28957">
        <ele>1434</ele>
        <time>2017-06-04T08:03:53.000Z</time>
      </trkpt>
      <trkpt lat="44.43727" lon="6.28953">
        <ele>1435</ele>
        <time>2017-06-04T08:04:03.000Z</time>
      </trkpt>
      <trkpt lat="44.43737" lon="6.28949">
        <ele>1433</ele>
        <time>2017-06-04T08:04:12.000Z</time>
      </trkpt>
      <trkpt lat="44.43745" lon="6.28957">
        <ele>1436</ele>
        <time>2017-06-04T08:04:24.000Z</time>
      </trkpt>
      <trkpt lat="44.43754" lon="6.2896">
        <ele>1431</ele>
        <time>2017-06-04T08:04:35.000Z</time>
      </trkpt>
      <trkpt lat="44.43765" lon="6.28962">
        <ele>1431</ele>
        <time>2017-06-04T08:04:44.000Z</time>
      </trkpt>
      <trkpt lat="44.43775" lon="6.28964">
        <ele>1426</ele>
        <time>2017-06-04T08:04:51.000Z</time>
      </trkpt>
      <trkpt lat="44.43784" lon="6.28968">
        <ele>1430</ele>
        <time>2017-06-04T08:05:01.000Z</time>
      </trkpt>
      <trkpt lat="44.43794" lon="6.28965">
        <ele>1429</ele>
        <time>2017-06-04T08:05:13.000Z</time>
      </trkpt>
      <trkpt lat="44.43804" lon="6.28966">
        <ele>1428</ele>
        <time>2017-06-04T08:05:27.000Z</time>
      </trkpt>
      <trkpt lat="44.43814" lon="6.28965">
        <ele>1440</ele>
        <time>2017-06-04T08:05:43.000Z</time>
      </trkpt>
      <trkpt lat="44.43824" lon="6.28964">
        <ele>1445</ele>
        <time>2017-06-04T08:05:54.000Z</time>
      </trkpt>
      <trkpt lat="44.43837" lon="6.2896">
        <ele>1445</ele>
        <time>2017-06-04T08:06:02.000Z</time>
      </trkpt>
      <trkpt lat="44.43846" lon="6.28955">
        <ele>1447</ele>
        <time>2017-06-04T08:06:08.000Z</time>
      </trkpt>
      <trkpt lat="44.43856" lon="6.28949">
        <ele>1448</ele>
        <time>2017-06-04T08:06:19.000Z</time>
      </trkpt>
      <trkpt lat="44.43865" lon="6.28945">
        <ele>1447</ele>
        <time>2017-06-04T08:06:30.000Z</time>
      </trkpt>
      <trkpt lat="44.43873" lon="6.28937">
        <ele>1441</ele>
        <time>2017-06-04T08:06:38.000Z</time>
      </trkpt>
      <trkpt lat="44.43881" lon="6.28933">
        <ele>1445</ele>
        <time>2017-06-04T08:06:44.000Z</time>
      </trkpt>
      <trkpt lat="44.43889" lon="6.28926">
        <ele>1447</ele>
        <time>2017-06-04T08:06:53.000Z</time>
      </trkpt>
      <trkpt lat="44.43896" lon="6.28918">
        <ele>1451</ele>
        <time>2017-06-04T08:07:00.000Z</time>
      </trkpt>
      <trkpt lat="44.43905" lon="6.28912">
        <ele>1456</ele>
        <time>2017-06-04T08:07:07.000Z</time>
      </trkpt>
      <trkpt lat="44.43914" lon="6.2891">
        <ele>1455</ele>
        <time>2017-06-04T08:07:17.000Z</time>
      </trkpt>
      <trkpt lat="44.43923" lon="6.28906">
        <ele>1455</ele>
        <time>2017-06-04T08:07:26.000Z</time>
      </trkpt>
      <trkpt lat="44.43932" lon="6.289">
        <ele>1456</ele>
        <time>2017-06-04T08:07:35.000Z</time>
      </trkpt>
      <trkpt lat="44.43941" lon="6.28891">
        <ele>1455</ele>
        <time>2017-06-04T08:07:45.000Z</time>
      </trkpt>
      <trkpt lat="44.43947" lon="6.28882">
        <ele>1453</ele>
        <time>2017-06-04T08:07:55.000Z</time>
      </trkpt>
      <trkpt lat="44.43956" lon="6.28876">
        <ele>1455</ele>
        <time>2017-06-04T08:08:11.000Z</time>
      </trkpt>
      <trkpt lat="44.43966" lon="6.28869">
        <ele>1456</ele>
        <time>2017-06-04T08:08:21.000Z</time>
      </trkpt>
      <trkpt lat="44.43975" lon="6.2886">
        <ele>1459</ele>
        <time>2017-06-04T08:08:32.000Z</time>
      </trkpt>
      <trkpt lat="44.43983" lon="6.28851">
        <ele>1461</ele>
        <time>2017-06-04T08:08:42.000Z</time>
      </trkpt>
      <trkpt lat="44.43992" lon="6.28847">
        <ele>1459</ele>
        <time>2017-06-04T08:08:55.000Z</time>
      </trkpt>
      <trkpt lat="44.44" lon="6.28844">
        <ele>1463</ele>
        <time>2017-06-04T08:09:03.000Z</time>
      </trkpt>
      <trkpt lat="44.44008" lon="6.28836">
        <ele>1459</ele>
        <time>2017-06-04T08:09:12.000Z</time>
      </trkpt>
      <trkpt lat="44.44016" lon="6.2883">
        <ele>1466</ele>
        <time>2017-06-04T08:10:43.000Z</time>
      </trkpt>
      <trkpt lat="44.44019" lon="6.28816">
        <ele>1471</ele>
        <time>2017-06-04T08:11:02.000Z</time>
      </trkpt>
      <trkpt lat="44.44025" lon="6.28804">
        <ele>1473</ele>
        <time>2017-06-04T08:11:14.000Z</time>
      </trkpt>
      <trkpt lat="44.4403" lon="6.28794">
        <ele>1475</ele>
        <time>2017-06-04T08:11:25.000Z</time>
      </trkpt>
      <trkpt lat="44.44035" lon="6.28778">
        <ele>1478</ele>
        <time>2017-06-04T08:11:38.000Z</time>
      </trkpt>
      <trkpt lat="44.44038" lon="6.28766">
        <ele>1478</ele>
        <time>2017-06-04T08:11:52.000Z</time>
      </trkpt>
      <trkpt lat="44.4404" lon="6.28752">
        <ele>1481</ele>
        <time>2017-06-04T08:12:04.000Z</time>
      </trkpt>
      <trkpt lat="44.44043" lon="6.28739">
        <ele>1483</ele>
        <time>2017-06-04T08:12:17.000Z</time>
      </trkpt>
      <trkpt lat="44.44051" lon="6.28732">
        <ele>1494</ele>
        <time>2017-06-04T08:12:28.000Z</time>
      </trkpt>
      <trkpt lat="44.44056" lon="6.28717">
        <ele>1487</ele>
        <time>2017-06-04T08:12:44.000Z</time>
      </trkpt>
      <trkpt lat="44.44061" lon="6.28706">
        <ele>1485</ele>
        <time>2017-06-04T08:12:58.000Z</time>
      </trkpt>
      <trkpt lat="44.44067" lon="6.28696">
        <ele>1486</ele>
        <time>2017-06-04T08:13:10.000Z</time>
      </trkpt>
      <trkpt lat="44.44073" lon="6.28687">
        <ele>1486</ele>
        <time>2017-06-04T08:13:20.000Z</time>
      </trkpt>
      <trkpt lat="44.44082" lon="6.28681">
        <ele>1487</ele>
        <time>2017-06-04T08:13:31.000Z</time>
      </trkpt>
      <trkpt lat="44.4409" lon="6.28673">
        <ele>1490</ele>
        <time>2017-06-04T08:13:46.000Z</time>
      </trkpt>
      <trkpt lat="44.44095" lon="6.28661">
        <ele>1490</ele>
        <time>2017-06-04T08:13:57.000Z</time>
      </trkpt>
      <trkpt lat="44.44105" lon="6.28652">
        <ele>1493</ele>
        <time>2017-06-04T08:14:12.000Z</time>
      </trkpt>
      <trkpt lat="44.44114" lon="6.28643">
        <ele>1493</ele>
        <time>2017-06-04T08:14:22.000Z</time>
      </trkpt>
      <trkpt lat="44.44124" lon="6.28633">
        <ele>1496</ele>
        <time>2017-06-04T08:14:31.000Z</time>
      </trkpt>
      <trkpt lat="44.4413" lon="6.28622">
        <ele>1496</ele>
        <time>2017-06-04T08:14:41.000Z</time>
      </trkpt>
      <trkpt lat="44.44136" lon="6.28613">
        <ele>1497</ele>
        <time>2017-06-04T08:14:51.000Z</time>
      </trkpt>
      <trkpt lat="44.44145" lon="6.28608">
        <ele>1483</ele>
        <time>2017-06-04T08:14:59.000Z</time>
      </trkpt>
      <trkpt lat="44.44151" lon="6.28598">
        <ele>1492</ele>
        <time>2017-06-04T08:15:11.000Z</time>
      </trkpt>
      <trkpt lat="44.44157" lon="6.28587">
        <ele>1493</ele>
        <time>2017-06-04T08:15:21.000Z</time>
      </trkpt>
      <trkpt lat="44.44163" lon="6.28577">
        <ele>1495</ele>
        <time>2017-06-04T08:15:30.000Z</time>
      </trkpt>
      <trkpt lat="44.44164" lon="6.28565">
        <ele>1497</ele>
        <time>2017-06-04T08:15:47.000Z</time>
      </trkpt>
      <trkpt lat="44.44171" lon="6.28557">
        <ele>1503</ele>
        <time>2017-06-04T08:16:03.000Z</time>
      </trkpt>
      <trkpt lat="44.44174" lon="6.28545">
        <ele>1502</ele>
        <time>2017-06-04T08:16:16.000Z</time>
      </trkpt>
      <trkpt lat="44.44177" lon="6.28532">
        <ele>1490</ele>
        <time>2017-06-04T08:16:24.000Z</time>
      </trkpt>
      <trkpt lat="44.44183" lon="6.28522">
        <ele>1507</ele>
        <time>2017-06-04T08:16:43.000Z</time>
      </trkpt>
      <trkpt lat="44.44188" lon="6.28511">
        <ele>1505</ele>
        <time>2017-06-04T08:17:11.000Z</time>
      </trkpt>
      <trkpt lat="44.44194" lon="6.28501">
        <ele>1503</ele>
        <time>2017-06-04T08:18:58.000Z</time>
      </trkpt>
      <trkpt lat="44.44194" lon="6.28488">
        <ele>1504</ele>
        <time>2017-06-04T08:20:55.000Z</time>
      </trkpt>
      <trkpt lat="44.44191" lon="6.28476">
        <ele>1510</ele>
        <time>2017-06-04T08:21:04.000Z</time>
      </trkpt>
      <trkpt lat="44.44183" lon="6.28465">
        <ele>1513</ele>
        <time>2017-06-04T08:21:22.000Z</time>
      </trkpt>
      <trkpt lat="44.44177" lon="6.28452">
        <ele>1517</ele>
        <time>2017-06-04T08:21:36.000Z</time>
      </trkpt>
      <trkpt lat="44.4417" lon="6.28442">
        <ele>1517</ele>
        <time>2017-06-04T08:21:45.000Z</time>
      </trkpt>
      <trkpt lat="44.44161" lon="6.28434">
        <ele>1514</ele>
        <time>2017-06-04T08:21:58.000Z</time>
      </trkpt>
      <trkpt lat="44.44152" lon="6.2843">
        <ele>1511</ele>
        <time>2017-06-04T08:22:08.000Z</time>
      </trkpt>
      <trkpt lat="44.44148" lon="6.28418">
        <ele>1513</ele>
        <time>2017-06-04T08:22:20.000Z</time>
      </trkpt>
      <trkpt lat="44.44141" lon="6.28406">
        <ele>1495</ele>
        <time>2017-06-04T08:22:34.000Z</time>
      </trkpt>
      <trkpt lat="44.44135" lon="6.28395">
        <ele>1495</ele>
        <time>2017-06-04T08:22:44.000Z</time>
      </trkpt>
      <trkpt lat="44.4413" lon="6.28381">
        <ele>1484</ele>
        <time>2017-06-04T08:22:56.000Z</time>
      </trkpt>
      <trkpt lat="44.44124" lon="6.28368">
        <ele>1499</ele>
        <time>2017-06-04T08:23:09.000Z</time>
      </trkpt>
      <trkpt lat="44.44118" lon="6.28358">
        <ele>1497</ele>
        <time>2017-06-04T08:23:26.000Z</time>
      </trkpt>
      <trkpt lat="44.44109" lon="6.28353">
        <ele>1506</ele>
        <time>2017-06-04T08:23:34.000Z</time>
      </trkpt>
      <trkpt lat="44.44101" lon="6.28347">
        <ele>1497</ele>
        <time>2017-06-04T08:23:42.000Z</time>
      </trkpt>
      <trkpt lat="44.44095" lon="6.28334">
        <ele>1515</ele>
        <time>2017-06-04T08:23:56.000Z</time>
      </trkpt>
      <trkpt lat="44.44087" lon="6.28324">
        <ele>1505</ele>
        <time>2017-06-04T08:24:10.000Z</time>
      </trkpt>
      <trkpt lat="44.4408" lon="6.28313">
        <ele>1503</ele>
        <time>2017-06-04T08:24:23.000Z</time>
      </trkpt>
      <trkpt lat="44.44078" lon="6.28299">
        <ele>1500</ele>
        <time>2017-06-04T08:26:26.000Z</time>
      </trkpt>
      <trkpt lat="44.44085" lon="6.28288">
        <ele>1467</ele>
        <time>2017-06-04T08:26:40.000Z</time>
      </trkpt>
      <trkpt lat="44.4409" lon="6.28275">
        <ele>1472</ele>
        <time>2017-06-04T08:26:54.000Z</time>
      </trkpt>
      <trkpt lat="44.44091" lon="6.28263">
        <ele>1516</ele>
        <time>2017-06-04T08:27:04.000Z</time>
      </trkpt>
      <trkpt lat="44.44096" lon="6.28251">
        <ele>1501</ele>
        <time>2017-06-04T08:27:15.000Z</time>
      </trkpt>
      <trkpt lat="44.44102" lon="6.2824">
        <ele>1531</ele>
        <time>2017-06-04T08:27:32.000Z</time>
      </trkpt>
      <trkpt lat="44.44107" lon="6.28229">
        <ele>1532</ele>
        <time>2017-06-04T08:27:46.000Z</time>
      </trkpt>
      <trkpt lat="44.44111" lon="6.28217">
        <ele>1529</ele>
        <time>2017-06-04T08:28:04.000Z</time>
      </trkpt>
      <trkpt lat="44.44117" lon="6.28206">
        <ele>1483</ele>
        <time>2017-06-04T08:28:16.000Z</time>
      </trkpt>
      <trkpt lat="44.44124" lon="6.28197">
        <ele>1507</ele>
        <time>2017-06-04T08:28:31.000Z</time>
      </trkpt>
      <trkpt lat="44.44132" lon="6.28189">
        <ele>1464</ele>
        <time>2017-06-04T08:28:50.000Z</time>
      </trkpt>
      <trkpt lat="44.44139" lon="6.28181">
        <ele>1482</ele>
        <time>2017-06-04T08:28:59.000Z</time>
      </trkpt>
      <trkpt lat="44.44149" lon="6.28177">
        <ele>1522</ele>
        <time>2017-06-04T08:29:11.000Z</time>
      </trkpt>
      <trkpt lat="44.44159" lon="6.28174">
        <ele>1535</ele>
        <time>2017-06-04T08:29:23.000Z</time>
      </trkpt>
      <trkpt lat="44.44169" lon="6.28168">
        <ele>1523</ele>
        <time>2017-06-04T08:29:36.000Z</time>
      </trkpt>
      <trkpt lat="44.44178" lon="6.28165">
        <ele>1544</ele>
        <time>2017-06-04T08:29:51.000Z</time>
      </trkpt>
      <trkpt lat="44.44188" lon="6.28165">
        <ele>1546</ele>
        <time>2017-06-04T08:30:00.000Z</time>
      </trkpt>
      <trkpt lat="44.44194" lon="6.28175">
        <ele>1555</ele>
        <time>2017-06-04T08:30:23.000Z</time>
      </trkpt>
      <trkpt lat="44.44201" lon="6.28166">
        <ele>1563</ele>
        <time>2017-06-04T08:32:56.000Z</time>
      </trkpt>
      <trkpt lat="44.44209" lon="6.2816">
        <ele>1560</ele>
        <time>2017-06-04T08:33:05.000Z</time>
      </trkpt>
      <trkpt lat="44.44201" lon="6.28167">
        <ele>1567</ele>
        <time>2017-06-04T08:34:59.000Z</time>
      </trkpt>
      <trkpt lat="44.44207" lon="6.28158">
        <ele>1564</ele>
        <time>2017-06-04T08:35:50.000Z</time>
      </trkpt>
      <trkpt lat="44.44212" lon="6.28147">
        <ele>1561</ele>
        <time>2017-06-04T08:36:02.000Z</time>
      </trkpt>
      <trkpt lat="44.44221" lon="6.28143">
        <ele>1564</ele>
        <time>2017-06-04T08:36:14.000Z</time>
      </trkpt>
      <trkpt lat="44.4423" lon="6.28137">
        <ele>1562</ele>
        <time>2017-06-04T08:36:24.000Z</time>
      </trkpt>
      <trkpt lat="44.44241" lon="6.28133">
        <ele>1562</ele>
        <time>2017-06-04T08:36:36.000Z</time>
      </trkpt>
      <trkpt lat="44.44252" lon="6.28132">
        <ele>1565</ele>
        <time>2017-06-04T08:36:46.000Z</time>
      </trkpt>
      <trkpt lat="44.44263" lon="6.28125">
        <ele>1563</ele>
        <time>2017-06-04T08:36:56.000Z</time>
      </trkpt>
      <trkpt lat="44.44273" lon="6.28129">
        <ele>1564</ele>
        <time>2017-06-04T08:37:13.000Z</time>
      </trkpt>
      <trkpt lat="44.44283" lon="6.28129">
        <ele>1563</ele>
        <time>2017-06-04T08:37:25.000Z</time>
      </trkpt>
      <trkpt lat="44.44294" lon="6.28125">
        <ele>1571</ele>
        <time>2017-06-04T08:37:41.000Z</time>
      </trkpt>
      <trkpt lat="44.44303" lon="6.28124">
        <ele>1564</ele>
        <time>2017-06-04T08:37:53.000Z</time>
      </trkpt>
      <trkpt lat="44.44312" lon="6.2812">
        <ele>1560</ele>
        <time>2017-06-04T08:38:01.000Z</time>
      </trkpt>
      <trkpt lat="44.44321" lon="6.28117">
        <ele>1564</ele>
        <time>2017-06-04T08:38:11.000Z</time>
      </trkpt>
      <trkpt lat="44.44331" lon="6.28115">
        <ele>1569</ele>
        <time>2017-06-04T08:38:21.000Z</time>
      </trkpt>
      <trkpt lat="44.44341" lon="6.28113">
        <ele>1572</ele>
        <time>2017-06-04T08:38:31.000Z</time>
      </trkpt>
      <trkpt lat="44.44352" lon="6.28112">
        <ele>1575</ele>
        <time>2017-06-04T08:38:45.000Z</time>
      </trkpt>
      <trkpt lat="44.4436" lon="6.28106">
        <ele>1515</ele>
        <time>2017-06-04T08:38:56.000Z</time>
      </trkpt>
      <trkpt lat="44.4437" lon="6.28102">
        <ele>1567</ele>
        <time>2017-06-04T08:39:08.000Z</time>
      </trkpt>
      <trkpt lat="44.44379" lon="6.28103">
        <ele>1517</ele>
        <time>2017-06-04T08:39:29.000Z</time>
      </trkpt>
      <trkpt lat="44.44388" lon="6.28098">
        <ele>1462</ele>
        <time>2017-06-04T08:39:37.000Z</time>
      </trkpt>
      <trkpt lat="44.44398" lon="6.28096">
        <ele>1499</ele>
        <time>2017-06-04T08:39:46.000Z</time>
      </trkpt>
      <trkpt lat="44.44407" lon="6.28098">
        <ele>1569</ele>
        <time>2017-06-04T08:39:56.000Z</time>
      </trkpt>
      <trkpt lat="44.44415" lon="6.28091">
        <ele>1580</ele>
        <time>2017-06-04T08:40:24.000Z</time>
      </trkpt>
      <trkpt lat="44.44422" lon="6.28083">
        <ele>1582</ele>
        <time>2017-06-04T08:40:37.000Z</time>
      </trkpt>
      <trkpt lat="44.44431" lon="6.28076">
        <ele>1594</ele>
        <time>2017-06-04T08:40:57.000Z</time>
      </trkpt>
      <trkpt lat="44.44439" lon="6.28064">
        <ele>1556</ele>
        <time>2017-06-04T08:41:13.000Z</time>
      </trkpt>
      <trkpt lat="44.44443" lon="6.28051">
        <ele>1596</ele>
        <time>2017-06-04T08:41:28.000Z</time>
      </trkpt>
      <trkpt lat="44.44445" lon="6.28038">
        <ele>1506</ele>
        <time>2017-06-04T08:41:46.000Z</time>
      </trkpt>
      <trkpt lat="44.44441" lon="6.28027">
        <ele>1601</ele>
        <time>2017-06-04T08:41:59.000Z</time>
      </trkpt>
      <trkpt lat="44.44437" lon="6.2801">
        <ele>1604</ele>
        <time>2017-06-04T08:42:08.000Z</time>
      </trkpt>
      <trkpt lat="44.44435" lon="6.27998">
        <ele>1506</ele>
        <time>2017-06-04T08:42:25.000Z</time>
      </trkpt>
      <trkpt lat="44.44435" lon="6.27982">
        <ele>1581</ele>
        <time>2017-06-04T08:42:43.000Z</time>
      </trkpt>
      <trkpt lat="44.44434" lon="6.27968">
        <ele>1617</ele>
        <time>2017-06-04T08:43:04.000Z</time>
      </trkpt>
      <trkpt lat="44.44439" lon="6.27955">
        <ele>1619</ele>
        <time>2017-06-04T08:43:19.000Z</time>
      </trkpt>
      <trkpt lat="44.44446" lon="6.27945">
        <ele>1624</ele>
        <time>2017-06-04T08:43:31.000Z</time>
      </trkpt>
      <trkpt lat="44.44453" lon="6.27937">
        <ele>1550</ele>
        <time>2017-06-04T08:43:42.000Z</time>
      </trkpt>
      <trkpt lat="44.44461" lon="6.27927">
        <ele>1629</ele>
        <time>2017-06-04T08:43:52.000Z</time>
      </trkpt>
      <trkpt lat="44.44466" lon="6.27915">
        <ele>1627</ele>
        <time>2017-06-04T08:44:02.000Z</time>
      </trkpt>
      <trkpt lat="44.44474" lon="6.27905">
        <ele>1513</ele>
        <time>2017-06-04T08:44:09.000Z</time>
      </trkpt>
      <trkpt lat="44.4448" lon="6.27894">
        <ele>1601</ele>
        <time>2017-06-04T08:44:17.000Z</time>
      </trkpt>
      <trkpt lat="44.44488" lon="6.27887">
        <ele>1630</ele>
        <time>2017-06-04T08:44:26.000Z</time>
      </trkpt>
      <trkpt lat="44.44495" lon="6.27877">
        <ele>1630</ele>
        <time>2017-06-04T08:44:35.000Z</time>
      </trkpt>
      <trkpt lat="44.44501" lon="6.27865">
        <ele>1626</ele>
        <time>2017-06-04T08:44:46.000Z</time>
      </trkpt>
      <trkpt lat="44.44504" lon="6.27852">
        <ele>1622</ele>
        <time>2017-06-04T08:44:55.000Z</time>
      </trkpt>
      <trkpt lat="44.44507" lon="6.27839">
        <ele>1613</ele>
        <time>2017-06-04T08:45:04.000Z</time>
      </trkpt>
      <trkpt lat="44.44509" lon="6.27827">
        <ele>1614</ele>
        <time>2017-06-04T08:45:14.000Z</time>
      </trkpt>
      <trkpt lat="44.44517" lon="6.27816">
        <ele>1618</ele>
        <time>2017-06-04T08:45:23.000Z</time>
      </trkpt>
      <trkpt lat="44.44523" lon="6.27804">
        <ele>1545</ele>
        <time>2017-06-04T08:45:31.000Z</time>
      </trkpt>
      <trkpt lat="44.44526" lon="6.27789">
        <ele>1603</ele>
        <time>2017-06-04T08:45:43.000Z</time>
      </trkpt>
      <trkpt lat="44.44529" lon="6.27773">
        <ele>1630</ele>
        <time>2017-06-04T08:46:00.000Z</time>
      </trkpt>
      <trkpt lat="44.44532" lon="6.2776">
        <ele>1632</ele>
        <time>2017-06-04T08:46:39.000Z</time>
      </trkpt>
      <trkpt lat="44.4453" lon="6.27747">
        <ele>1634</ele>
        <time>2017-06-04T08:46:51.000Z</time>
      </trkpt>
      <trkpt lat="44.44538" lon="6.27755">
        <ele>1635</ele>
        <time>2017-06-04T08:51:44.000Z</time>
      </trkpt>
      <trkpt lat="44.44538" lon="6.2777">
        <ele>1633</ele>
        <time>2017-06-04T08:52:33.000Z</time>
      </trkpt>
      <trkpt lat="44.44539" lon="6.27784">
        <ele>1634</ele>
        <time>2017-06-04T08:52:44.000Z</time>
      </trkpt>
      <trkpt lat="44.44543" lon="6.27799">
        <ele>1632</ele>
        <time>2017-06-04T08:53:03.000Z</time>
      </trkpt>
      <trkpt lat="44.44544" lon="6.27814">
        <ele>1632</ele>
        <time>2017-06-04T08:53:09.000Z</time>
      </trkpt>
      <trkpt lat="44.44541" lon="6.27829">
        <ele>1634</ele>
        <time>2017-06-04T08:53:19.000Z</time>
      </trkpt>
      <trkpt lat="44.44547" lon="6.27837">
        <ele>1550</ele>
        <time>2017-06-04T08:53:36.000Z</time>
      </trkpt>
      <trkpt lat="44.44553" lon="6.27848">
        <ele>1625</ele>
        <time>2017-06-04T08:53:51.000Z</time>
      </trkpt>
      <trkpt lat="44.4456" lon="6.27858">
        <ele>1627</ele>
        <time>2017-06-04T08:54:03.000Z</time>
      </trkpt>
      <trkpt lat="44.44568" lon="6.27868">
        <ele>1622</ele>
        <time>2017-06-04T08:54:15.000Z</time>
      </trkpt>
      <trkpt lat="44.44566" lon="6.27882">
        <ele>1622</ele>
        <time>2017-06-04T08:54:28.000Z</time>
      </trkpt>
      <trkpt lat="44.44565" lon="6.27894">
        <ele>1620</ele>
        <time>2017-06-04T08:54:48.000Z</time>
      </trkpt>
      <trkpt lat="44.44558" lon="6.27904">
        <ele>1617</ele>
        <time>2017-06-04T08:55:26.000Z</time>
      </trkpt>
      <trkpt lat="44.44556" lon="6.27917">
        <ele>1610</ele>
        <time>2017-06-04T08:55:58.000Z</time>
      </trkpt>
      <trkpt lat="44.4456" lon="6.27904">
        <ele>1587</ele>
        <time>2017-06-04T08:56:52.000Z</time>
      </trkpt>
      <trkpt lat="44.44564" lon="6.27894">
        <ele>1618</ele>
        <time>2017-06-04T08:57:27.000Z</time>
      </trkpt>
      <trkpt lat="44.44569" lon="6.27883">
        <ele>1626</ele>
        <time>2017-06-04T08:59:59.000Z</time>
      </trkpt>
      <trkpt lat="44.4457" lon="6.27868">
        <ele>1626</ele>
        <time>2017-06-04T09:00:09.000Z</time>
      </trkpt>
      <trkpt lat="44.44571" lon="6.27854">
        <ele>1625</ele>
        <time>2017-06-04T09:00:20.000Z</time>
      </trkpt>
      <trkpt lat="44.44566" lon="6.27842">
        <ele>1630</ele>
        <time>2017-06-04T09:00:35.000Z</time>
      </trkpt>
      <trkpt lat="44.44558" lon="6.27836">
        <ele>1543</ele>
        <time>2017-06-04T09:00:52.000Z</time>
      </trkpt>
      <trkpt lat="44.44556" lon="6.27822">
        <ele>1610</ele>
        <time>2017-06-04T09:01:03.000Z</time>
      </trkpt>
      <trkpt lat="44.44553" lon="6.27809">
        <ele>1630</ele>
        <time>2017-06-04T09:01:14.000Z</time>
      </trkpt>
      <trkpt lat="44.44554" lon="6.27795">
        <ele>1552</ele>
        <time>2017-06-04T09:01:22.000Z</time>
      </trkpt>
      <trkpt lat="44.44549" lon="6.27781">
        <ele>1630</ele>
        <time>2017-06-04T09:01:40.000Z</time>
      </trkpt>
      <trkpt lat="44.44545" lon="6.27767">
        <ele>1630</ele>
        <time>2017-06-04T09:01:49.000Z</time>
      </trkpt>
      <trkpt lat="44.4454" lon="6.27755">
        <ele>1632</ele>
        <time>2017-06-04T09:01:58.000Z</time>
      </trkpt>
      <trkpt lat="44.44533" lon="6.27747">
        <ele>1629</ele>
        <time>2017-06-04T09:02:07.000Z</time>
      </trkpt>
      <trkpt lat="44.44529" lon="6.2776">
        <ele>1630</ele>
        <time>2017-06-04T09:07:17.000Z</time>
      </trkpt>
      <trkpt lat="44.44525" lon="6.27773">
        <ele>1632</ele>
        <time>2017-06-04T09:07:27.000Z</time>
      </trkpt>
      <trkpt lat="44.44519" lon="6.27785">
        <ele>1635</ele>
        <time>2017-06-04T09:07:46.000Z</time>
      </trkpt>
      <trkpt lat="44.44515" lon="6.27797">
        <ele>1631</ele>
        <time>2017-06-04T09:07:55.000Z</time>
      </trkpt>
      <trkpt lat="44.44513" lon="6.2781">
        <ele>1626</ele>
        <time>2017-06-04T09:08:04.000Z</time>
      </trkpt>
      <trkpt lat="44.44511" lon="6.27827">
        <ele>1627</ele>
        <time>2017-06-04T09:08:23.000Z</time>
      </trkpt>
      <trkpt lat="44.44504" lon="6.27837">
        <ele>1625</ele>
        <time>2017-06-04T09:08:33.000Z</time>
      </trkpt>
      <trkpt lat="44.44498" lon="6.27848">
        <ele>1625</ele>
        <time>2017-06-04T09:08:45.000Z</time>
      </trkpt>
      <trkpt lat="44.4449" lon="6.27856">
        <ele>1627</ele>
        <time>2017-06-04T09:08:59.000Z</time>
      </trkpt>
      <trkpt lat="44.44484" lon="6.27865">
        <ele>1623</ele>
        <time>2017-06-04T09:09:09.000Z</time>
      </trkpt>
      <trkpt lat="44.44476" lon="6.27873">
        <ele>1573</ele>
        <time>2017-06-04T09:09:15.000Z</time>
      </trkpt>
      <trkpt lat="44.44469" lon="6.27885">
        <ele>1603</ele>
        <time>2017-06-04T09:09:22.000Z</time>
      </trkpt>
      <trkpt lat="44.44463" lon="6.27899">
        <ele>1570</ele>
        <time>2017-06-04T09:09:32.000Z</time>
      </trkpt>
      <trkpt lat="44.44457" lon="6.27909">
        <ele>1618</ele>
        <time>2017-06-04T09:09:43.000Z</time>
      </trkpt>
      <trkpt lat="44.4445" lon="6.27918">
        <ele>1621</ele>
        <time>2017-06-04T09:09:51.000Z</time>
      </trkpt>
      <trkpt lat="44.44441" lon="6.27931">
        <ele>1622</ele>
        <time>2017-06-04T09:10:03.000Z</time>
      </trkpt>
      <trkpt lat="44.44433" lon="6.27941">
        <ele>1605</ele>
        <time>2017-06-04T09:10:13.000Z</time>
      </trkpt>
      <trkpt lat="44.44422" lon="6.27946">
        <ele>1615</ele>
        <time>2017-06-04T09:10:26.000Z</time>
      </trkpt>
      <trkpt lat="44.44412" lon="6.2795">
        <ele>1620</ele>
        <time>2017-06-04T09:10:37.000Z</time>
      </trkpt>
      <trkpt lat="44.44402" lon="6.27956">
        <ele>1618</ele>
        <time>2017-06-04T09:10:45.000Z</time>
      </trkpt>
      <trkpt lat="44.44392" lon="6.27962">
        <ele>1621</ele>
        <time>2017-06-04T09:10:54.000Z</time>
      </trkpt>
      <trkpt lat="44.44383" lon="6.27965">
        <ele>1621</ele>
        <time>2017-06-04T09:11:03.000Z</time>
      </trkpt>
      <trkpt lat="44.44371" lon="6.2797">
        <ele>1620</ele>
        <time>2017-06-04T09:11:17.000Z</time>
      </trkpt>
      <trkpt lat="44.44361" lon="6.27972">
        <ele>1616</ele>
        <time>2017-06-04T09:11:25.000Z</time>
      </trkpt>
      <trkpt lat="44.44352" lon="6.27977">
        <ele>1614</ele>
        <time>2017-06-04T09:11:37.000Z</time>
      </trkpt>
      <trkpt lat="44.44342" lon="6.27982">
        <ele>1616</ele>
        <time>2017-06-04T09:11:47.000Z</time>
      </trkpt>
      <trkpt lat="44.44335" lon="6.27991">
        <ele>1609</ele>
        <time>2017-06-04T09:12:02.000Z</time>
      </trkpt>
      <trkpt lat="44.44328" lon="6.28003">
        <ele>1611</ele>
        <time>2017-06-04T09:12:17.000Z</time>
      </trkpt>
      <trkpt lat="44.44325" lon="6.28016">
        <ele>1606</ele>
        <time>2017-06-04T09:12:32.000Z</time>
      </trkpt>
      <trkpt lat="44.44319" lon="6.28026">
        <ele>1599</ele>
        <time>2017-06-04T09:12:50.000Z</time>
      </trkpt>
      <trkpt lat="44.44311" lon="6.28036">
        <ele>1595</ele>
        <time>2017-06-04T09:13:07.000Z</time>
      </trkpt>
      <trkpt lat="44.44309" lon="6.28051">
        <ele>1571</ele>
        <time>2017-06-04T09:13:40.000Z</time>
      </trkpt>
      <trkpt lat="44.44302" lon="6.28061">
        <ele>1593</ele>
        <time>2017-06-04T09:13:55.000Z</time>
      </trkpt>
      <trkpt lat="44.44299" lon="6.28073">
        <ele>1596</ele>
        <time>2017-06-04T09:14:02.000Z</time>
      </trkpt>
      <trkpt lat="44.44291" lon="6.2808">
        <ele>1589</ele>
        <time>2017-06-04T09:14:19.000Z</time>
      </trkpt>
      <trkpt lat="44.44281" lon="6.28085">
        <ele>1578</ele>
        <time>2017-06-04T09:14:44.000Z</time>
      </trkpt>
      <trkpt lat="44.44272" lon="6.28088">
        <ele>1575</ele>
        <time>2017-06-04T09:14:55.000Z</time>
      </trkpt>
      <trkpt lat="44.44269" lon="6.281">
        <ele>1579</ele>
        <time>2017-06-04T09:15:07.000Z</time>
      </trkpt>
      <trkpt lat="44.44263" lon="6.2811">
        <ele>1576</ele>
        <time>2017-06-04T09:15:21.000Z</time>
      </trkpt>
      <trkpt lat="44.44259" lon="6.28122">
        <ele>1573</ele>
        <time>2017-06-04T09:15:35.000Z</time>
      </trkpt>
      <trkpt lat="44.44251" lon="6.28126">
        <ele>1578</ele>
        <time>2017-06-04T09:15:44.000Z</time>
      </trkpt>
      <trkpt lat="44.44241" lon="6.28132">
        <ele>1573</ele>
        <time>2017-06-04T09:15:57.000Z</time>
      </trkpt>
      <trkpt lat="44.44233" lon="6.2814">
        <ele>1573</ele>
        <time>2017-06-04T09:16:04.000Z</time>
      </trkpt>
      <trkpt lat="44.44222" lon="6.28141">
        <ele>1571</ele>
        <time>2017-06-04T09:16:10.000Z</time>
      </trkpt>
      <trkpt lat="44.44214" lon="6.28146">
        <ele>1568</ele>
        <time>2017-06-04T09:16:20.000Z</time>
      </trkpt>
      <trkpt lat="44.44205" lon="6.28153">
        <ele>1565</ele>
        <time>2017-06-04T09:16:28.000Z</time>
      </trkpt>
      <trkpt lat="44.44195" lon="6.28149">
        <ele>1562</ele>
        <time>2017-06-04T09:16:38.000Z</time>
      </trkpt>
      <trkpt lat="44.44185" lon="6.2815">
        <ele>1562</ele>
        <time>2017-06-04T09:16:44.000Z</time>
      </trkpt>
      <trkpt lat="44.44177" lon="6.28156">
        <ele>1561</ele>
        <time>2017-06-04T09:16:55.000Z</time>
      </trkpt>
      <trkpt lat="44.44167" lon="6.28159">
        <ele>1562</ele>
        <time>2017-06-04T09:17:02.000Z</time>
      </trkpt>
      <trkpt lat="44.44161" lon="6.28168">
        <ele>1560</ele>
        <time>2017-06-04T09:17:10.000Z</time>
      </trkpt>
      <trkpt lat="44.44148" lon="6.28173">
        <ele>1562</ele>
        <time>2017-06-04T09:17:22.000Z</time>
      </trkpt>
      <trkpt lat="44.44139" lon="6.28181">
        <ele>1555</ele>
        <time>2017-06-04T09:17:48.000Z</time>
      </trkpt>
      <trkpt lat="44.44131" lon="6.28191">
        <ele>1552</ele>
        <time>2017-06-04T09:18:00.000Z</time>
      </trkpt>
      <trkpt lat="44.44123" lon="6.28197">
        <ele>1550</ele>
        <time>2017-06-04T09:18:19.000Z</time>
      </trkpt>
      <trkpt lat="44.44116" lon="6.28206">
        <ele>1543</ele>
        <time>2017-06-04T09:18:30.000Z</time>
      </trkpt>
      <trkpt lat="44.44109" lon="6.28216">
        <ele>1543</ele>
        <time>2017-06-04T09:18:52.000Z</time>
      </trkpt>
      <trkpt lat="44.44101" lon="6.28225">
        <ele>1539</ele>
        <time>2017-06-04T09:19:06.000Z</time>
      </trkpt>
      <trkpt lat="44.44095" lon="6.28237">
        <ele>1535</ele>
        <time>2017-06-04T09:19:23.000Z</time>
      </trkpt>
      <trkpt lat="44.44091" lon="6.28251">
        <ele>1532</ele>
        <time>2017-06-04T09:19:32.000Z</time>
      </trkpt>
      <trkpt lat="44.44089" lon="6.28263">
        <ele>1528</ele>
        <time>2017-06-04T09:19:45.000Z</time>
      </trkpt>
      <trkpt lat="44.44086" lon="6.28275">
        <ele>1526</ele>
        <time>2017-06-04T09:19:54.000Z</time>
      </trkpt>
      <trkpt lat="44.44081" lon="6.2829">
        <ele>1522</ele>
        <time>2017-06-04T09:20:02.000Z</time>
      </trkpt>
      <trkpt lat="44.44071" lon="6.28297">
        <ele>1525</ele>
        <time>2017-06-04T09:21:53.000Z</time>
      </trkpt>
      <trkpt lat="44.44064" lon="6.28307">
        <ele>1526</ele>
        <time>2017-06-04T09:22:06.000Z</time>
      </trkpt>
      <trkpt lat="44.44055" lon="6.28311">
        <ele>1528</ele>
        <time>2017-06-04T09:22:16.000Z</time>
      </trkpt>
      <trkpt lat="44.44046" lon="6.28318">
        <ele>1528</ele>
        <time>2017-06-04T09:22:26.000Z</time>
      </trkpt>
      <trkpt lat="44.4404" lon="6.2833">
        <ele>1527</ele>
        <time>2017-06-04T09:22:41.000Z</time>
      </trkpt>
      <trkpt lat="44.44035" lon="6.28342">
        <ele>1492</ele>
        <time>2017-06-04T09:22:48.000Z</time>
      </trkpt>
      <trkpt lat="44.44031" lon="6.28355">
        <ele>1510</ele>
        <time>2017-06-04T09:22:54.000Z</time>
      </trkpt>
      <trkpt lat="44.44026" lon="6.28366">
        <ele>1525</ele>
        <time>2017-06-04T09:23:00.000Z</time>
      </trkpt>
      <trkpt lat="44.44024" lon="6.2838">
        <ele>1524</ele>
        <time>2017-06-04T09:23:09.000Z</time>
      </trkpt>
      <trkpt lat="44.44021" lon="6.28392">
        <ele>1515</ele>
        <time>2017-06-04T09:23:19.000Z</time>
      </trkpt>
      <trkpt lat="44.44017" lon="6.28404">
        <ele>1523</ele>
        <time>2017-06-04T09:23:27.000Z</time>
      </trkpt>
      <trkpt lat="44.44019" lon="6.28417">
        <ele>1523</ele>
        <time>2017-06-04T09:23:33.000Z</time>
      </trkpt>
      <trkpt lat="44.4402" lon="6.28432">
        <ele>1528</ele>
        <time>2017-06-04T09:23:49.000Z</time>
      </trkpt>
      <trkpt lat="44.44022" lon="6.28445">
        <ele>1525</ele>
        <time>2017-06-04T09:23:57.000Z</time>
      </trkpt>
      <trkpt lat="44.44022" lon="6.28459">
        <ele>1525</ele>
        <time>2017-06-04T09:24:06.000Z</time>
      </trkpt>
      <trkpt lat="44.44019" lon="6.28472">
        <ele>1526</ele>
        <time>2017-06-04T09:24:16.000Z</time>
      </trkpt>
      <trkpt lat="44.4401" lon="6.28479">
        <ele>1531</ele>
        <time>2017-06-04T09:24:29.000Z</time>
      </trkpt>
      <trkpt lat="44.44004" lon="6.2849">
        <ele>1534</ele>
        <time>2017-06-04T09:24:39.000Z</time>
      </trkpt>
      <trkpt lat="44.43998" lon="6.28503">
        <ele>1522</ele>
        <time>2017-06-04T09:24:50.000Z</time>
      </trkpt>
      <trkpt lat="44.43992" lon="6.28515">
        <ele>1521</ele>
        <time>2017-06-04T09:25:00.000Z</time>
      </trkpt>
      <trkpt lat="44.43984" lon="6.28526">
        <ele>1514</ele>
        <time>2017-06-04T09:25:10.000Z</time>
      </trkpt>
      <trkpt lat="44.43982" lon="6.28539">
        <ele>1517</ele>
        <time>2017-06-04T09:25:31.000Z</time>
      </trkpt>
      <trkpt lat="44.43981" lon="6.28552">
        <ele>1519</ele>
        <time>2017-06-04T09:25:45.000Z</time>
      </trkpt>
      <trkpt lat="44.43976" lon="6.28564">
        <ele>1522</ele>
        <time>2017-06-04T09:25:53.000Z</time>
      </trkpt>
      <trkpt lat="44.43971" lon="6.28574">
        <ele>1524</ele>
        <time>2017-06-04T09:26:05.000Z</time>
      </trkpt>
      <trkpt lat="44.43967" lon="6.28587">
        <ele>1517</ele>
        <time>2017-06-04T09:26:17.000Z</time>
      </trkpt>
      <trkpt lat="44.43963" lon="6.28601">
        <ele>1509</ele>
        <time>2017-06-04T09:26:27.000Z</time>
      </trkpt>
      <trkpt lat="44.43964" lon="6.28615">
        <ele>1515</ele>
        <time>2017-06-04T09:26:39.000Z</time>
      </trkpt>
      <trkpt lat="44.43963" lon="6.2863">
        <ele>1515</ele>
        <time>2017-06-04T09:26:48.000Z</time>
      </trkpt>
      <trkpt lat="44.43961" lon="6.28645">
        <ele>1510</ele>
        <time>2017-06-04T09:27:02.000Z</time>
      </trkpt>
      <trkpt lat="44.43956" lon="6.28658">
        <ele>1499</ele>
        <time>2017-06-04T09:27:21.000Z</time>
      </trkpt>
      <trkpt lat="44.4395" lon="6.28669">
        <ele>1502</ele>
        <time>2017-06-04T09:27:47.000Z</time>
      </trkpt>
      <trkpt lat="44.43944" lon="6.2868">
        <ele>1495</ele>
        <time>2017-06-04T09:28:06.000Z</time>
      </trkpt>
      <trkpt lat="44.43938" lon="6.2869">
        <ele>1500</ele>
        <time>2017-06-04T09:28:16.000Z</time>
      </trkpt>
      <trkpt lat="44.43931" lon="6.28698">
        <ele>1497</ele>
        <time>2017-06-04T09:28:23.000Z</time>
      </trkpt>
      <trkpt lat="44.43922" lon="6.28708">
        <ele>1495</ele>
        <time>2017-06-04T09:28:34.000Z</time>
      </trkpt>
      <trkpt lat="44.43915" lon="6.28717">
        <ele>1481</ele>
        <time>2017-06-04T09:28:53.000Z</time>
      </trkpt>
      <trkpt lat="44.43908" lon="6.28728">
        <ele>1487</ele>
        <time>2017-06-04T09:29:17.000Z</time>
      </trkpt>
      <trkpt lat="44.43903" lon="6.28739">
        <ele>1481</ele>
        <time>2017-06-04T09:29:22.000Z</time>
      </trkpt>
      <trkpt lat="44.43901" lon="6.28751">
        <ele>1479</ele>
        <time>2017-06-04T09:29:33.000Z</time>
      </trkpt>
      <trkpt lat="44.43896" lon="6.28761">
        <ele>1480</ele>
        <time>2017-06-04T09:29:52.000Z</time>
      </trkpt>
      <trkpt lat="44.43891" lon="6.28777">
        <ele>1488</ele>
        <time>2017-06-04T09:29:59.000Z</time>
      </trkpt>
      <trkpt lat="44.43886" lon="6.28788">
        <ele>1488</ele>
        <time>2017-06-04T09:30:07.000Z</time>
      </trkpt>
      <trkpt lat="44.43885" lon="6.288">
        <ele>1482</ele>
        <time>2017-06-04T09:30:19.000Z</time>
      </trkpt>
      <trkpt lat="44.4388" lon="6.28811">
        <ele>1476</ele>
        <time>2017-06-04T09:30:37.000Z</time>
      </trkpt>
      <trkpt lat="44.43874" lon="6.28823">
        <ele>1472</ele>
        <time>2017-06-04T09:30:55.000Z</time>
      </trkpt>
      <trkpt lat="44.43866" lon="6.2883">
        <ele>1468</ele>
        <time>2017-06-04T09:31:04.000Z</time>
      </trkpt>
      <trkpt lat="44.43858" lon="6.28838">
        <ele>1467</ele>
        <time>2017-06-04T09:31:13.000Z</time>
      </trkpt>
      <trkpt lat="44.4385" lon="6.2885">
        <ele>1463</ele>
        <time>2017-06-04T09:31:24.000Z</time>
      </trkpt>
      <trkpt lat="44.43842" lon="6.28858">
        <ele>1459</ele>
        <time>2017-06-04T09:31:58.000Z</time>
      </trkpt>
      <trkpt lat="44.43833" lon="6.28861">
        <ele>1456</ele>
        <time>2017-06-04T09:32:08.000Z</time>
      </trkpt>
      <trkpt lat="44.43826" lon="6.28871">
        <ele>1456</ele>
        <time>2017-06-04T09:32:18.000Z</time>
      </trkpt>
      <trkpt lat="44.43821" lon="6.28883">
        <ele>1457</ele>
        <time>2017-06-04T09:32:29.000Z</time>
      </trkpt>
      <trkpt lat="44.43813" lon="6.28895">
        <ele>1460</ele>
        <time>2017-06-04T09:32:45.000Z</time>
      </trkpt>
      <trkpt lat="44.43805" lon="6.28905">
        <ele>1458</ele>
        <time>2017-06-04T09:32:56.000Z</time>
      </trkpt>
      <trkpt lat="44.43799" lon="6.28917">
        <ele>1452</ele>
        <time>2017-06-04T09:33:08.000Z</time>
      </trkpt>
      <trkpt lat="44.43797" lon="6.28932">
        <ele>1449</ele>
        <time>2017-06-04T09:33:22.000Z</time>
      </trkpt>
      <trkpt lat="44.43794" lon="6.28943">
        <ele>1448</ele>
        <time>2017-06-04T09:33:34.000Z</time>
      </trkpt>
      <trkpt lat="44.43787" lon="6.28952">
        <ele>1448</ele>
        <time>2017-06-04T09:33:52.000Z</time>
      </trkpt>
      <trkpt lat="44.43779" lon="6.28963">
        <ele>1450</ele>
        <time>2017-06-04T09:34:13.000Z</time>
      </trkpt>
      <trkpt lat="44.43768" lon="6.28959">
        <ele>1441</ele>
        <time>2017-06-04T09:34:36.000Z</time>
      </trkpt>
      <trkpt lat="44.43759" lon="6.28961">
        <ele>1441</ele>
        <time>2017-06-04T09:34:44.000Z</time>
      </trkpt>
      <trkpt lat="44.43751" lon="6.28955">
        <ele>1440</ele>
        <time>2017-06-04T09:34:53.000Z</time>
      </trkpt>
      <trkpt lat="44.43742" lon="6.28947">
        <ele>1441</ele>
        <time>2017-06-04T09:35:00.000Z</time>
      </trkpt>
      <trkpt lat="44.43733" lon="6.28944">
        <ele>1437</ele>
        <time>2017-06-04T09:35:12.000Z</time>
      </trkpt>
      <trkpt lat="44.43723" lon="6.28945">
        <ele>1435</ele>
        <time>2017-06-04T09:35:22.000Z</time>
      </trkpt>
      <trkpt lat="44.43713" lon="6.28949">
        <ele>1436</ele>
        <time>2017-06-04T09:35:30.000Z</time>
      </trkpt>
      <trkpt lat="44.43701" lon="6.28948">
        <ele>1433</ele>
        <time>2017-06-04T09:35:41.000Z</time>
      </trkpt>
      <trkpt lat="44.4369" lon="6.28948">
        <ele>1433</ele>
        <time>2017-06-04T09:35:49.000Z</time>
      </trkpt>
      <trkpt lat="44.43679" lon="6.28947">
        <ele>1431</ele>
        <time>2017-06-04T09:35:59.000Z</time>
      </trkpt>
      <trkpt lat="44.43669" lon="6.2895">
        <ele>1428</ele>
        <time>2017-06-04T09:36:12.000Z</time>
      </trkpt>
      <trkpt lat="44.4366" lon="6.28959">
        <ele>1431</ele>
        <time>2017-06-04T09:36:22.000Z</time>
      </trkpt>
      <trkpt lat="44.43651" lon="6.28963">
        <ele>1429</ele>
        <time>2017-06-04T09:36:37.000Z</time>
      </trkpt>
      <trkpt lat="44.43641" lon="6.28958">
        <ele>1429</ele>
        <time>2017-06-04T09:36:48.000Z</time>
      </trkpt>
      <trkpt lat="44.43631" lon="6.28956">
        <ele>1432</ele>
        <time>2017-06-04T09:36:55.000Z</time>
      </trkpt>
      <trkpt lat="44.43623" lon="6.28964">
        <ele>1432</ele>
        <time>2017-06-04T09:37:06.000Z</time>
      </trkpt>
      <trkpt lat="44.43614" lon="6.28972">
        <ele>1431</ele>
        <time>2017-06-04T09:37:14.000Z</time>
      </trkpt>
      <trkpt lat="44.43604" lon="6.2898">
        <ele>1430</ele>
        <time>2017-06-04T09:37:21.000Z</time>
      </trkpt>
      <trkpt lat="44.43595" lon="6.28986">
        <ele>1430</ele>
        <time>2017-06-04T09:37:27.000Z</time>
      </trkpt>
      <trkpt lat="44.43587" lon="6.28995">
        <ele>1427</ele>
        <time>2017-06-04T09:37:38.000Z</time>
      </trkpt>
      <trkpt lat="44.43578" lon="6.29003">
        <ele>1425</ele>
        <time>2017-06-04T09:37:48.000Z</time>
      </trkpt>
      <trkpt lat="44.43572" lon="6.29013">
        <ele>1421</ele>
        <time>2017-06-04T09:37:59.000Z</time>
      </trkpt>
      <trkpt lat="44.43566" lon="6.29028">
        <ele>1420</ele>
        <time>2017-06-04T09:38:08.000Z</time>
      </trkpt>
      <trkpt lat="44.43559" lon="6.29041">
        <ele>1413</ele>
        <time>2017-06-04T09:38:19.000Z</time>
      </trkpt>
      <trkpt lat="44.43554" lon="6.29052">
        <ele>1414</ele>
        <time>2017-06-04T09:38:32.000Z</time>
      </trkpt>
      <trkpt lat="44.43547" lon="6.2906">
        <ele>1414</ele>
        <time>2017-06-04T09:38:40.000Z</time>
      </trkpt>
      <trkpt lat="44.43538" lon="6.2907">
        <ele>1414</ele>
        <time>2017-06-04T09:38:51.000Z</time>
      </trkpt>
      <trkpt lat="44.43533" lon="6.29081">
        <ele>1414</ele>
        <time>2017-06-04T09:38:59.000Z</time>
      </trkpt>
      <trkpt lat="44.43525" lon="6.29088">
        <ele>1413</ele>
        <time>2017-06-04T09:39:07.000Z</time>
      </trkpt>
      <trkpt lat="44.43516" lon="6.29085">
        <ele>1412</ele>
        <time>2017-06-04T09:39:19.000Z</time>
      </trkpt>
      <trkpt lat="44.43507" lon="6.29091">
        <ele>1408</ele>
        <time>2017-06-04T09:39:26.000Z</time>
      </trkpt>
      <trkpt lat="44.43496" lon="6.29093">
        <ele>1406</ele>
        <time>2017-06-04T09:39:38.000Z</time>
      </trkpt>
      <trkpt lat="44.43486" lon="6.29089">
        <ele>1406</ele>
        <time>2017-06-04T09:39:45.000Z</time>
      </trkpt>
      <trkpt lat="44.43478" lon="6.29084">
        <ele>1405</ele>
        <time>2017-06-04T09:39:53.000Z</time>
      </trkpt>
      <trkpt lat="44.43469" lon="6.29077">
        <ele>1412</ele>
        <time>2017-06-04T09:40:03.000Z</time>
      </trkpt>
      <trkpt lat="44.43461" lon="6.29071">
        <ele>1411</ele>
        <time>2017-06-04T09:40:12.000Z</time>
      </trkpt>
      <trkpt lat="44.43453" lon="6.29064">
        <ele>1413</ele>
        <time>2017-06-04T09:40:25.000Z</time>
      </trkpt>
      <trkpt lat="44.43443" lon="6.29059">
        <ele>1411</ele>
        <time>2017-06-04T09:40:31.000Z</time>
      </trkpt>
      <trkpt lat="44.43432" lon="6.29054">
        <ele>1412</ele>
        <time>2017-06-04T09:40:38.000Z</time>
      </trkpt>
      <trkpt lat="44.43422" lon="6.29052">
        <ele>1412</ele>
        <time>2017-06-04T09:40:46.000Z</time>
      </trkpt>
      <trkpt lat="44.43411" lon="6.29054">
        <ele>1410</ele>
        <time>2017-06-04T09:40:54.000Z</time>
      </trkpt>
      <trkpt lat="44.43401" lon="6.29059">
        <ele>1407</ele>
        <time>2017-06-04T09:41:05.000Z</time>
      </trkpt>
      <trkpt lat="44.43391" lon="6.29063">
        <ele>1406</ele>
        <time>2017-06-04T09:41:16.000Z</time>
      </trkpt>
      <trkpt lat="44.4338" lon="6.29069">
        <ele>1404</ele>
        <time>2017-06-04T09:41:25.000Z</time>
      </trkpt>
      <trkpt lat="44.43369" lon="6.29074">
        <ele>1403</ele>
        <time>2017-06-04T09:41:34.000Z</time>
      </trkpt>
      <trkpt lat="44.43357" lon="6.29076">
        <ele>1402</ele>
        <time>2017-06-04T09:41:49.000Z</time>
      </trkpt>
      <trkpt lat="44.43347" lon="6.29077">
        <ele>1404</ele>
        <time>2017-06-04T09:42:00.000Z</time>
      </trkpt>
      <trkpt lat="44.43338" lon="6.29081">
        <ele>1404</ele>
        <time>2017-06-04T09:42:09.000Z</time>
      </trkpt>
      <trkpt lat="44.43329" lon="6.29085">
        <ele>1399</ele>
        <time>2017-06-04T09:42:17.000Z</time>
      </trkpt>
      <trkpt lat="44.43318" lon="6.29088">
        <ele>1401</ele>
        <time>2017-06-04T09:42:26.000Z</time>
      </trkpt>
      <trkpt lat="44.43308" lon="6.29086">
        <ele>1401</ele>
        <time>2017-06-04T09:42:35.000Z</time>
      </trkpt>
      <trkpt lat="44.43296" lon="6.29084">
        <ele>1403</ele>
        <time>2017-06-04T09:42:43.000Z</time>
      </trkpt>
      <trkpt lat="44.43287" lon="6.29088">
        <ele>1400</ele>
        <time>2017-06-04T09:42:56.000Z</time>
      </trkpt>
      <trkpt lat="44.43279" lon="6.29095">
        <ele>1398</ele>
        <time>2017-06-04T09:43:07.000Z</time>
      </trkpt>
      <trkpt lat="44.43269" lon="6.29098">
        <ele>1398</ele>
        <time>2017-06-04T09:43:16.000Z</time>
      </trkpt>
      <trkpt lat="44.43261" lon="6.29105">
        <ele>1392</ele>
        <time>2017-06-04T09:43:26.000Z</time>
      </trkpt>
      <trkpt lat="44.43251" lon="6.29104">
        <ele>1394</ele>
        <time>2017-06-04T09:43:35.000Z</time>
      </trkpt>
      <trkpt lat="44.43242" lon="6.29106">
        <ele>1393</ele>
        <time>2017-06-04T09:43:42.000Z</time>
      </trkpt>
      <trkpt lat="44.43231" lon="6.29106">
        <ele>1393</ele>
        <time>2017-06-04T09:43:51.000Z</time>
      </trkpt>
      <trkpt lat="44.43222" lon="6.29108">
        <ele>1395</ele>
        <time>2017-06-04T09:44:01.000Z</time>
      </trkpt>
      <trkpt lat="44.43213" lon="6.29102">
        <ele>1391</ele>
        <time>2017-06-04T09:45:23.000Z</time>
      </trkpt>
      <trkpt lat="44.43205" lon="6.29093">
        <ele>1394</ele>
        <time>2017-06-04T09:45:36.000Z</time>
      </trkpt>
      <trkpt lat="44.43198" lon="6.29085">
        <ele>1389</ele>
        <time>2017-06-04T09:45:51.000Z</time>
      </trkpt>
      <trkpt lat="44.43187" lon="6.29081">
        <ele>1382</ele>
        <time>2017-06-04T09:46:04.000Z</time>
      </trkpt>
      <trkpt lat="44.43178" lon="6.29076">
        <ele>1378</ele>
        <time>2017-06-04T09:46:18.000Z</time>
      </trkpt>
      <trkpt lat="44.43169" lon="6.29078">
        <ele>1380</ele>
        <time>2017-06-04T09:46:36.000Z</time>
      </trkpt>
      <trkpt lat="44.4316" lon="6.29075">
        <ele>1375</ele>
        <time>2017-06-04T09:46:44.000Z</time>
      </trkpt>
      <trkpt lat="44.43151" lon="6.29069">
        <ele>1383</ele>
        <time>2017-06-04T09:46:56.000Z</time>
      </trkpt>
      <trkpt lat="44.43142" lon="6.29071">
        <ele>1370</ele>
        <time>2017-06-04T09:47:11.000Z</time>
      </trkpt>
      <trkpt lat="44.43132" lon="6.29069">
        <ele>1367</ele>
        <time>2017-06-04T09:47:26.000Z</time>
      </trkpt>
      <trkpt lat="44.43123" lon="6.29063">
        <ele>1369</ele>
        <time>2017-06-04T09:47:34.000Z</time>
      </trkpt>
      <trkpt lat="44.43112" lon="6.29061">
        <ele>1365</ele>
        <time>2017-06-04T09:47:47.000Z</time>
      </trkpt>
      <trkpt lat="44.43103" lon="6.2906">
        <ele>1361</ele>
        <time>2017-06-04T09:48:00.000Z</time>
      </trkpt>
      <trkpt lat="44.43093" lon="6.29059">
        <ele>1360</ele>
        <time>2017-06-04T09:48:13.000Z</time>
      </trkpt>
      <trkpt lat="44.43084" lon="6.29054">
        <ele>1359</ele>
        <time>2017-06-04T09:48:29.000Z</time>
      </trkpt>
      <trkpt lat="44.43074" lon="6.29051">
        <ele>1358</ele>
        <time>2017-06-04T09:48:42.000Z</time>
      </trkpt>
      <trkpt lat="44.43064" lon="6.2905">
        <ele>1355</ele>
        <time>2017-06-04T09:48:51.000Z</time>
      </trkpt>
      <trkpt lat="44.43053" lon="6.29053">
        <ele>1350</ele>
        <time>2017-06-04T09:49:03.000Z</time>
      </trkpt>
      <trkpt lat="44.43043" lon="6.29046">
        <ele>1352</ele>
        <time>2017-06-04T09:49:15.000Z</time>
      </trkpt>
      <trkpt lat="44.43035" lon="6.29041">
        <ele>1350</ele>
        <time>2017-06-04T09:49:22.000Z</time>
      </trkpt>
      <trkpt lat="44.43026" lon="6.29038">
        <ele>1345</ele>
        <time>2017-06-04T09:49:34.000Z</time>
      </trkpt>
      <trkpt lat="44.43015" lon="6.29036">
        <ele>1344</ele>
        <time>2017-06-04T09:49:50.000Z</time>
      </trkpt>
      <trkpt lat="44.43006" lon="6.29034">
        <ele>1341</ele>
        <time>2017-06-04T09:50:02.000Z</time>
      </trkpt>
      <trkpt lat="44.42995" lon="6.29032">
        <ele>1339</ele>
        <time>2017-06-04T09:50:16.000Z</time>
      </trkpt>
      <trkpt lat="44.42985" lon="6.29033">
        <ele>1337</ele>
        <time>2017-06-04T09:50:26.000Z</time>
      </trkpt>
      <trkpt lat="44.42976" lon="6.29031">
        <ele>1338</ele>
        <time>2017-06-04T09:50:34.000Z</time>
      </trkpt>
      <trkpt lat="44.42967" lon="6.2903">
        <ele>1360</ele>
        <time>2017-06-04T09:50:43.000Z</time>
      </trkpt>
      <trkpt lat="44.42955" lon="6.29034">
        <ele>1336</ele>
        <time>2017-06-04T09:50:51.000Z</time>
      </trkpt>
      <trkpt lat="44.42946" lon="6.29035">
        <ele>1336</ele>
        <time>2017-06-04T09:50:58.000Z</time>
      </trkpt>
      <trkpt lat="44.42937" lon="6.29034">
        <ele>1335</ele>
        <time>2017-06-04T09:51:06.000Z</time>
      </trkpt>
      <trkpt lat="44.42926" lon="6.29036">
        <ele>1333</ele>
        <time>2017-06-04T09:51:16.000Z</time>
      </trkpt>
      <trkpt lat="44.42915" lon="6.29036">
        <ele>1334</ele>
        <time>2017-06-04T09:51:24.000Z</time>
      </trkpt>
      <trkpt lat="44.42904" lon="6.29039">
        <ele>1332</ele>
        <time>2017-06-04T09:51:33.000Z</time>
      </trkpt>
      <trkpt lat="44.42894" lon="6.2904">
        <ele>1331</ele>
        <time>2017-06-04T09:51:43.000Z</time>
      </trkpt>
      <trkpt lat="44.42884" lon="6.29035">
        <ele>1331</ele>
        <time>2017-06-04T09:51:54.000Z</time>
      </trkpt>
      <trkpt lat="44.42877" lon="6.29026">
        <ele>1330</ele>
        <time>2017-06-04T09:52:05.000Z</time>
      </trkpt>
      <trkpt lat="44.42873" lon="6.29012">
        <ele>1332</ele>
        <time>2017-06-04T09:52:14.000Z</time>
      </trkpt>
      <trkpt lat="44.42869" lon="6.29">
        <ele>1331</ele>
        <time>2017-06-04T09:52:21.000Z</time>
      </trkpt>
      <trkpt lat="44.42868" lon="6.28986">
        <ele>1329</ele>
        <time>2017-06-04T09:52:31.000Z</time>
      </trkpt>
      <trkpt lat="44.42867" lon="6.28973">
        <ele>1328</ele>
        <time>2017-06-04T09:52:41.000Z</time>
      </trkpt>
      <trkpt lat="44.42854" lon="6.28971">
        <ele>1323</ele>
        <time>2017-06-04T09:52:56.000Z</time>
      </trkpt>
      <trkpt lat="44.42843" lon="6.28976">
        <ele>1322</ele>
        <time>2017-06-04T09:53:03.000Z</time>
      </trkpt>
      <trkpt lat="44.42834" lon="6.28984">
        <ele>1314</ele>
        <time>2017-06-04T09:53:12.000Z</time>
      </trkpt>
      <trkpt lat="44.42828" lon="6.28997">
        <ele>1312</ele>
        <time>2017-06-04T09:53:21.000Z</time>
      </trkpt>
      <trkpt lat="44.4282" lon="6.29005">
        <ele>1311</ele>
        <time>2017-06-04T09:53:30.000Z</time>
      </trkpt>
      <trkpt lat="44.42808" lon="6.29009">
        <ele>1311</ele>
        <time>2017-06-04T09:53:42.000Z</time>
      </trkpt>
      <trkpt lat="44.42808" lon="6.28996">
        <ele>1313</ele>
        <time>2017-06-04T09:53:53.000Z</time>
      </trkpt>
    </trkseg>
  </trk>
</gpx>